createdAt,value
2023-03-23T00:11:36.454Z,974.65
2023-03-23T00:23:34.181Z,974.52
2023-03-23T00:35:34.681Z,974.42
2023-03-23T00:47:37.801Z,974.31
2023-03-23T00:59:35.532Z,974.26
2023-03-23T01:11:35.973Z,974.23
2023-03-23T01:23:36.459Z,974.15
2023-03-23T01:35:39.325Z,974.17
2023-03-23T01:47:37.507Z,974.24
2023-03-23T01:59:38.013Z,974.37
2023-03-23T02:11:38.295Z,974.41
2023-03-23T02:23:38.716Z,974.61
2023-03-23T02:35:39.325Z,974.64
2023-03-23T02:47:39.696Z,974.60
2023-03-23T02:59:40.079Z,974.56
2023-03-23T03:11:40.533Z,974.52
2023-03-23T03:23:40.955Z,974.47
2023-03-23T03:35:41.568Z,974.48
2023-03-23T03:47:41.869Z,974.47
2023-03-23T03:59:42.328Z,974.52
2023-03-23T04:11:42.811Z,974.47
2023-03-23T04:23:43.221Z,974.64
2023-03-23T04:35:44.360Z,974.65
2023-03-23T04:47:46.443Z,974.69
2023-03-23T04:59:46.826Z,974.67
2023-03-23T05:11:45.036Z,974.73
2023-03-23T05:23:45.493Z,974.79
2023-03-23T05:35:46.372Z,974.85
2023-03-23T05:47:46.386Z,974.96
2023-03-23T05:59:46.882Z,974.97
2023-03-23T06:11:47.315Z,975.12
2023-03-23T06:23:47.750Z,975.14
2023-03-23T06:35:48.260Z,975.09
2023-03-23T06:47:48.695Z,975.19
2023-03-23T06:59:49.267Z,975.26
2023-03-23T07:11:49.569Z,975.20
2023-03-23T07:23:50.027Z,975.33
2023-03-23T07:35:50.485Z,975.30
2023-03-23T07:47:50.938Z,975.31
2023-03-23T07:59:51.373Z,975.21
2023-03-23T08:11:51.842Z,975.35
2023-03-23T08:23:52.301Z,975.32
2023-03-23T08:35:52.796Z,975.24
2023-03-23T08:47:53.189Z,975.28
2023-03-23T08:59:53.652Z,975.30
2023-03-23T09:11:54.074Z,975.26
2023-03-23T09:23:54.618Z,975.19
2023-03-23T09:35:55.056Z,975.20
2023-03-23T09:47:55.488Z,975.27
2023-03-23T09:59:58.242Z,975.11
2023-03-23T10:11:56.372Z,974.99
2023-03-23T10:23:56.845Z,975.09
2023-03-23T10:35:59.563Z,974.86
2023-03-23T10:47:59.980Z,974.90
2023-03-23T11:00:00.525Z,974.80
2023-03-23T11:12:02.137Z,974.61
2023-03-23T11:24:09.336Z,974.68
2023-03-23T11:35:59.616Z,974.52
2023-03-23T11:48:00.014Z,974.54
2023-03-23T12:00:00.506Z,974.32
2023-03-23T12:12:00.960Z,974.14
2023-03-23T12:24:03.177Z,974.07
2023-03-23T12:36:01.924Z,974.13
2023-03-23T12:48:02.318Z,973.90
2023-03-23T13:00:02.785Z,973.87
2023-03-23T13:12:03.229Z,973.75
2023-03-23T13:24:03.738Z,973.56
2023-03-23T13:36:06.073Z,973.46
2023-03-23T13:48:04.597Z,973.57
2023-03-23T14:00:05.036Z,973.66
2023-03-23T14:12:05.542Z,973.65
2023-03-23T14:24:05.924Z,973.62
2023-03-23T14:36:06.503Z,973.62
2023-03-23T14:48:06.846Z,973.57
2023-03-23T15:00:07.323Z,973.64
2023-03-23T15:12:07.801Z,973.64
2023-03-23T15:24:08.262Z,973.56
2023-03-23T15:36:08.720Z,973.68
2023-03-23T15:48:09.173Z,973.73
2023-03-23T16:00:09.621Z,973.79
2023-03-23T16:12:10.062Z,973.83
2023-03-23T16:24:10.506Z,974.06
2023-03-23T16:36:11.681Z,974.04
2023-03-23T16:48:11.461Z,974.10
2023-03-23T17:00:11.864Z,974.13
2023-03-23T17:12:12.336Z,974.18
2023-03-23T17:24:12.824Z,974.36
2023-03-23T17:36:13.361Z,974.50
2023-03-23T17:48:13.756Z,974.51
2023-03-23T18:00:16.484Z,974.59
2023-03-23T18:12:14.633Z,974.44
2023-03-23T18:24:15.060Z,974.68
2023-03-23T18:36:15.536Z,974.68
2023-03-23T18:48:15.971Z,974.62
2023-03-23T19:00:16.437Z,974.65
2023-03-23T19:12:16.871Z,974.68
2023-03-23T19:24:17.495Z,974.64
2023-03-23T19:36:18.446Z,974.67
2023-03-23T19:48:18.290Z,974.73
2023-03-23T20:00:18.677Z,974.68
2023-03-23T20:12:19.190Z,974.86
2023-03-23T20:24:19.607Z,974.90
2023-03-23T20:36:20.142Z,975.11
2023-03-23T20:48:23.331Z,975.08
2023-03-23T21:00:21.433Z,974.98
2023-03-23T21:12:23.748Z,975.05
2023-03-23T21:24:22.053Z,975.05
2023-03-23T21:36:24.649Z,975.18
2023-03-23T21:48:22.781Z,975.21
2023-03-23T22:00:23.221Z,975.08
2023-03-23T22:12:23.704Z,975.02
2023-03-23T22:24:24.119Z,974.98
2023-03-23T22:36:24.654Z,974.92
2023-03-23T22:48:25.025Z,974.86
2023-03-23T23:00:25.521Z,974.69
2023-03-23T23:12:25.939Z,974.58
2023-03-23T23:24:26.450Z,974.59
2023-03-23T23:36:26.867Z,974.57
2023-03-23T23:48:27.352Z,974.64
